Time;durP1;ratioP1;P1;durP2;ratioP2;P2;SDS_P1;SDS_P2;PMS_P1;PMS_P2;Temp;Humidity;BMP_temperature;BMP_pressure;BME280_temperature;BME280_humidity;BME280_pressure;Samples;Min_cycle;Max_cycle;Signal;HPM_P1;HPM_P2
2023/10/01 00:01:36;;;;;;;10.80;6.83;;;15.20;99.90;;;;;;4994807;28;20825;-69
2023/10/01 00:04:05;;;;;;;9.90;7.10;;;15.10;99.90;;;;;;4994823;28;20450;-71
2023/10/01 00:06:31;;;;;;;9.23;6.00;;;15.10;99.90;;;;;;5001274;28;20916;-71
2023/10/01 00:08:57;;;;;;;13.10;7.77;;;15.10;99.90;;;;;;5014631;28;20455;-70
2023/10/01 00:11:24;;;;;;;11.30;7.17;;;15.10;99.90;;;;;;5013945;28;20684;-71
2023/10/01 00:13:50;;;;;;;12.20;8.23;;;15.20;99.90;;;;;;5013876;28;20409;-71
2023/10/01 00:16:15;;;;;;;11.80;8.13;;;15.10;99.90;;;;;;5008334;28;20456;-71
2023/10/01 00:18:41;;;;;;;10.40;7.67;;;15.10;99.90;;;;;;4994086;28;20554;-70
2023/10/01 00:21:07;;;;;;;13.93;7.20;;;15.00;99.90;;;;;;4994416;28;20172;-71
2023/10/01 00:23:33;;;;;;;10.90;7.73;;;14.90;99.90;;;;;;4993445;28;20637;-70
2023/10/01 00:25:58;;;;;;;12.90;8.10;;;14.90;99.90;;;;;;4997275;28;20439;-70
2023/10/01 00:28:24;;;;;;;11.17;7.30;;;14.90;99.90;;;;;;5013495;28;20209;-70
2023/10/01 00:30:50;;;;;;;10.30;7.57;;;14.80;99.90;;;;;;5013470;28;20196;-70
2023/10/01 00:33:15;;;;;;;20.40;8.87;;;14.80;99.90;;;;;;5012250;28;20191;-70
2023/10/01 00:35:41;;;;;;;13.03;8.90;;;14.70;99.90;;;;;;5012838;28;20259;-70
2023/10/01 00:38:10;;;;;;;12.43;7.40;;;14.70;99.90;;;;;;4993799;28;20166;-70
2023/10/01 00:40:36;;;;;;;13.33;7.70;;;14.70;99.90;;;;;;4994120;28;20416;-70
2023/10/01 00:43:03;;;;;;;15.60;8.40;;;14.70;99.90;;;;;;4994121;28;20425;-70
2023/10/01 00:45:30;;;;;;;10.43;7.50;;;14.70;99.90;;;;;;4993849;28;20276;-68
2023/10/01 00:48:03;;;;;;;10.77;7.50;;;14.80;99.90;;;;;;5012260;28;20518;-69
2023/10/01 00:50:29;;;;;;;12.90;7.93;;;14.80;99.90;;;;;;5013111;28;20437;-69
2023/10/01 00:52:57;;;;;;;11.27;7.90;;;14.80;99.90;;;;;;5013749;28;20826;-70
2023/10/01 00:55:26;;;;;;;11.20;7.43;;;14.80;99.90;;;;;;5013107;28;20535;-70
2023/10/01 00:57:55;;;;;;;14.50;7.97;;;14.80;99.90;;;;;;4995057;28;20445;-70
2023/10/01 01:00:23;;;;;;;12.07;7.93;;;14.60;99.90;;;;;;4993227;28;20503;-70
2023/10/01 01:03:07;;;;;;;11.23;8.23;;;14.60;99.90;;;;;;4993394;28;20757;-69
2023/10/01 01:05:49;;;;;;;10.57;7.10;;;14.60;99.90;;;;;;4993659;28;20804;-69
2023/10/01 01:08:28;;;;;;;11.70;7.53;;;14.50;99.90;;;;;;4973907;28;20526;-70
2023/10/01 01:10:54;;;;;;;12.83;8.70;;;14.50;99.90;;;;;;4974273;28;20795;-69
2023/10/01 01:13:23;;;;;;;11.80;7.73;;;14.50;99.90;;;;;;4989456;28;20485;-70
2023/10/01 01:15:51;;;;;;;10.93;7.00;;;14.40;99.90;;;;;;4996524;28;20548;-70
2023/10/01 01:18:20;;;;;;;14.53;7.57;;;14.40;99.90;;;;;;5012514;28;20513;-71
2023/10/01 01:20:47;;;;;;;10.20;7.93;;;14.50;99.90;;;;;;5013091;28;20557;-70
2023/10/01 01:23:21;;;;;;;14.60;8.30;;;14.50;99.90;;;;;;5012979;28;20410;-69
2023/10/01 01:25:49;;;;;;;15.53;7.97;;;14.50;99.90;;;;;;5012187;28;20404;-68
2023/10/01 01:28:24;;;;;;;10.47;8.03;;;14.40;99.90;;;;;;4993162;28;20504;-69
2023/10/01 01:30:50;;;;;;;14.93;8.33;;;14.40;99.90;;;;;;4993520;28;20465;-70
2023/10/01 01:33:21;;;;;;;12.87;7.63;;;14.30;99.90;;;;;;4993415;28;20399;-69
2023/10/01 01:35:50;;;;;;;11.60;8.77;;;14.30;99.90;;;;;;4993774;28;20389;-69
2023/10/01 01:38:16;;;;;;;13.70;8.50;;;14.20;99.90;;;;;;5012932;28;20979;-70
2023/10/01 01:40:42;;;;;;;12.97;8.70;;;14.20;99.90;;;;;;4996509;28;20406;-69
2023/10/01 01:43:23;;;;;;;11.43;8.30;;;14.20;99.90;;;;;;4993154;28;20168;-69
2023/10/01 01:45:57;;;;;;;14.27;9.63;;;14.20;99.90;;;;;;4993623;28;20208;-69
2023/10/01 01:48:34;;;;;;;13.60;10.30;;;14.30;99.90;;;;;;5012746;28;20494;-69
2023/10/01 01:51:01;;;;;;;11.87;7.83;;;14.20;99.90;;;;;;5012615;28;20486;-69
2023/10/01 01:53:34;;;;;;;14.10;9.10;;;14.10;99.90;;;;;;5011241;28;20498;-69
2023/10/01 01:56:11;;;;;;;12.93;8.73;;;14.10;99.90;;;;;;5010918;28;20512;-71
2023/10/01 01:58:47;;;;;;;11.83;8.60;;;14.10;99.90;;;;;;4993015;28;20502;-70
2023/10/01 02:03:39;;;;;;;12.23;8.37;;;14.00;99.90;;;;;;4993080;28;20465;-70
2023/10/01 02:06:08;;;;;;;13.67;9.50;;;14.00;99.90;;;;;;4995300;28;20257;-70
2023/10/01 02:08:35;;;;;;;10.63;8.87;;;14.00;99.90;;;;;;5012548;28;20504;-68
2023/10/01 02:11:09;;;;;;;11.70;8.87;;;14.00;99.90;;;;;;5013214;28;20440;-69
2023/10/01 02:13:40;;;;;;;15.87;9.60;;;13.90;99.90;;;;;;5012793;28;20380;-68
2023/10/01 02:18:58;;;;;;;14.60;10.50;;;14.00;99.90;;;;;;4992521;28;20852;-71
2023/10/01 02:21:42;;;;;;;13.80;9.97;;;14.00;99.90;;;;;;4992998;28;20381;-71
2023/10/01 02:24:12;;;;;;;12.47;9.13;;;14.00;99.90;;;;;;4993089;28;20414;-70
2023/10/01 02:26:46;;;;;;;14.43;8.80;;;14.00;99.90;;;;;;4999326;28;20876;-70
2023/10/01 02:29:13;;;;;;;13.70;9.47;;;14.00;99.90;;;;;;5012304;28;20476;-70
2023/10/01 02:31:54;;;;;;;13.17;9.47;;;14.00;99.90;;;;;;5015699;28;20940;-70
2023/10/01 02:34:21;;;;;;;14.77;9.23;;;14.00;99.90;;;;;;5016119;28;20416;-70
2023/10/01 02:36:47;;;;;;;11.83;9.07;;;14.10;99.90;;;;;;5008300;28;20448;-69
2023/10/01 02:39:28;;;;;;;12.77;8.90;;;14.00;99.90;;;;;;4996032;28;20474;-69
2023/10/01 02:44:53;;;;;;;12.30;9.23;;;14.00;99.90;;;;;;4995642;28;20501;-70
2023/10/01 02:47:20;;;;;;;9.90;8.53;;;13.80;99.90;;;;;;5007752;28;20752;-69
2023/10/01 02:49:52;;;;;;;14.10;9.70;;;13.70;99.90;;;;;;5016253;28;20472;-70
2023/10/01 02:52:22;;;;;;;13.03;8.97;;;13.70;99.90;;;;;;5014169;28;20460;-70
2023/10/01 02:54:57;;;;;;;13.57;8.47;;;13.80;99.90;;;;;;5015721;28;20386;-69
2023/10/01 02:57:24;;;;;;;13.20;8.60;;;13.90;99.90;;;;;;5003601;28;20734;-69
2023/10/01 03:02:38;;;;;;;14.33;9.33;;;13.90;99.90;;;;;;4996423;28;20469;-70
2023/10/01 03:05:16;;;;;;;12.00;9.07;;;13.90;99.90;;;;;;4995764;28;20414;-71
2023/10/01 03:07:45;;;;;;;11.40;8.67;;;13.80;99.90;;;;;;5007144;28;20396;-70
2023/10/01 03:10:29;;;;;;;11.03;8.10;;;13.90;99.90;;;;;;5014917;28;20474;-70
2023/10/01 03:12:57;;;;;;;19.03;8.90;;;13.90;99.90;;;;;;5015235;28;20395;-69
2023/10/01 03:15:35;;;;;;;13.77;9.23;;;13.80;99.90;;;;;;5015532;28;20410;-70
2023/10/01 03:18:34;;;;;;;11.50;8.70;;;13.80;99.90;;;;;;4998112;28;20405;-70
2023/10/01 03:26:10;;;;;;;11.90;8.20;;;13.70;99.90;;;;;;4996246;28;20199;-70
2023/10/01 03:31:21;;;;;;;10.77;8.10;;;13.80;99.90;;;;;;4976145;28;20629;-69
2023/10/01 03:33:48;;;;;;;12.33;9.17;;;13.80;99.90;;;;;;4976396;28;20837;-70
2023/10/01 03:36:16;;;;;;;12.63;8.93;;;13.80;99.90;;;;;;4999213;28;20443;-71
2023/10/01 03:38:47;;;;;;;12.60;8.37;;;13.80;99.90;;;;;;4995410;28;20461;-70
2023/10/01 03:41:22;;;;;;;11.33;8.60;;;13.90;99.90;;;;;;4994403;28;20462;-70
2023/10/01 03:44:08;;;;;;;12.60;8.60;;;13.80;99.90;;;;;;4995161;28;20398;-70
2023/10/01 03:46:42;;;;;;;14.70;9.03;;;13.80;99.90;;;;;;5000367;28;20435;-69
2023/10/01 03:51:52;;;;;;;12.60;9.10;;;13.70;99.90;;;;;;5014948;28;20469;-69
2023/10/01 03:54:19;;;;;;;11.80;8.40;;;13.70;99.90;;;;;;5014941;28;20859;-70
2023/10/01 03:56:56;;;;;;;14.93;10.50;;;13.70;99.90;;;;;;5008206;28;20672;-71
2023/10/01 03:59:28;;;;;;;14.00;8.37;;;13.60;99.90;;;;;;4995365;28;20427;-69
2023/10/01 04:02:02;;;;;;;13.43;8.47;;;13.60;99.90;;;;;;4994907;28;20761;-70
2023/10/01 04:04:56;;;;;;;11.40;9.23;;;13.60;99.90;;;;;;4994656;28;20395;-70
2023/10/01 04:07:26;;;;;;;16.13;9.13;;;13.50;99.90;;;;;;5005510;28;20441;-70
2023/10/01 04:09:54;;;;;;;12.97;9.13;;;13.60;99.90;;;;;;5014186;28;20949;-70
2023/10/01 04:12:27;;;;;;;12.03;8.63;;;13.60;99.90;;;;;;5014724;28;20882;-70
2023/10/01 04:14:54;;;;;;;14.07;9.60;;;13.60;99.90;;;;;;5012961;28;20430;-70
2023/10/01 04:17:20;;;;;;;15.53;9.47;;;13.70;99.90;;;;;;5003836;28;20440;-68
2023/10/01 04:19:49;;;;;;;12.77;8.50;;;13.60;99.90;;;;;;4994589;28;20535;-70
2023/10/01 04:22:21;;;;;;;13.80;9.17;;;13.60;99.90;;;;;;4992961;28;20471;-70
2023/10/01 04:25:00;;;;;;;13.50;8.13;;;13.60;99.90;;;;;;4992982;28;20922;-71
2023/10/01 04:27:34;;;;;;;16.00;10.23;;;13.60;99.90;;;;;;5005334;28;20916;-69
2023/10/01 04:30:00;;;;;;;11.93;9.33;;;13.50;99.90;;;;;;5013773;28;20948;-69
2023/10/01 04:32:29;;;;;;;14.13;10.10;;;13.50;99.90;;;;;;5013751;28;20540;-70
2023/10/01 04:35:01;;;;;;;11.77;9.03;;;13.50;99.90;;;;;;5013546;28;20513;-70
2023/10/01 04:37:41;;;;;;;8.60;7.63;;;13.50;99.90;;;;;;5002295;28;20419;-69
2023/10/01 04:43:10;;;;;;;10.40;8.07;;;13.60;99.90;;;;;;4994193;28;20478;-70
2023/10/01 04:45:40;;;;;;;15.13;9.00;;;13.50;99.90;;;;;;4992617;28;20904;-70
2023/10/01 04:48:15;;;;;;;12.10;8.70;;;13.50;99.90;;;;;;5010450;28;20772;-69
2023/10/01 04:50:49;;;;;;;14.30;9.83;;;13.50;99.90;;;;;;5013587;28;20441;-69
2023/10/01 04:53:18;;;;;;;11.17;8.90;;;13.40;99.90;;;;;;5013386;28;20867;-70
2023/10/01 04:55:44;;;;;;;12.30;9.57;;;13.30;99.90;;;;;;5013190;28;20926;-70
2023/10/01 04:58:14;;;;;;;16.77;9.73;;;13.30;99.90;;;;;;4996458;28;20520;-69
2023/10/01 05:00:42;;;;;;;11.60;8.47;;;13.30;99.90;;;;;;4996275;28;20237;-71
2023/10/01 05:03:08;;;;;;;11.63;8.50;;;13.20;99.90;;;;;;4993313;28;20421;-69
2023/10/01 05:05:37;;;;;;;10.67;8.30;;;13.30;99.90;;;;;;4993552;28;20813;-69
2023/10/01 05:08:07;;;;;;;13.87;8.93;;;13.30;99.90;;;;;;5008712;28;20785;-69
2023/10/01 05:10:50;;;;;;;12.07;8.70;;;13.30;99.90;;;;;;5013006;28;20485;-70
2023/10/01 05:13:20;;;;;;;12.90;9.47;;;13.30;99.90;;;;;;5013009;28;20383;-70
2023/10/01 05:15:49;;;;;;;11.57;9.10;;;13.40;99.90;;;;;;5013041;28;20421;-69
2023/10/01 05:18:16;;;;;;;11.87;7.83;;;13.40;99.90;;;;;;4995604;28;20436;-70
2023/10/01 05:20:41;;;;;;;12.23;9.00;;;13.50;99.90;;;;;;4993415;28;20415;-69
2023/10/01 05:23:07;;;;;;;12.63;8.70;;;13.50;99.90;;;;;;4993352;28;20401;-70
2023/10/01 05:25:35;;;;;;;15.93;10.80;;;13.50;99.90;;;;;;4992502;28;20267;-70
2023/10/01 05:28:03;;;;;;;12.07;8.00;;;13.40;99.90;;;;;;5008238;28;20267;-70
2023/10/01 05:30:36;;;;;;;11.47;8.10;;;13.40;99.90;;;;;;5012910;28;20449;-70
2023/10/01 05:33:05;;;;;;;13.20;8.90;;;13.30;99.90;;;;;;5013285;28;20384;-70
2023/10/01 05:35:47;;;;;;;14.50;9.77;;;13.40;99.90;;;;;;5013374;28;20934;-69
2023/10/01 05:38:16;;;;;;;10.93;8.80;;;13.40;99.90;;;;;;4997050;28;20400;-69
2023/10/01 05:40:44;;;;;;;12.97;9.33;;;13.40;99.90;;;;;;4993306;28;20407;-70
2023/10/01 05:43:13;;;;;;;12.43;8.87;;;13.40;99.90;;;;;;4993453;28;20960;-69
2023/10/01 05:45:52;;;;;;;14.83;9.87;;;13.40;99.90;;;;;;5008416;28;20422;-69
2023/10/01 05:48:19;;;;;;;12.03;8.93;;;13.50;99.90;;;;;;4995626;28;20840;-69
2023/10/01 05:50:46;;;;;;;12.33;8.57;;;13.50;99.90;;;;;;4992765;28;20448;-69
2023/10/01 05:53:13;;;;;;;9.83;8.47;;;13.50;99.90;;;;;;4992797;28;20522;-69
2023/10/01 05:55:43;;;;;;;12.57;8.53;;;13.50;99.90;;;;;;4992794;28;20408;-70
2023/10/01 05:58:16;;;;;;;13.73;10.30;;;13.50;99.90;;;;;;5008634;28;20422;-70
2023/10/01 06:00:56;;;;;;;11.73;8.90;;;13.50;99.90;;;;;;5012759;28;20761;-70
2023/10/01 06:03:23;;;;;;;10.90;8.33;;;13.60;99.90;;;;;;5012484;28;20382;-69
2023/10/01 06:05:58;;;;;;;9.67;7.70;;;13.60;99.90;;;;;;5015035;28;20488;-70
2023/10/01 06:08:34;;;;;;;13.53;9.10;;;13.60;99.90;;;;;;4998527;28;20482;-69
2023/10/01 06:11:09;;;;;;;11.03;7.90;;;13.60;99.90;;;;;;4997549;28;20524;-70
2023/10/01 06:13:39;;;;;;;11.53;8.93;;;13.60;99.90;;;;;;4997022;28;20748;-69
2023/10/01 06:16:16;;;;;;;12.73;8.27;;;13.70;99.90;;;;;;4996695;28;20386;-69
2023/10/01 06:18:49;;;;;;;10.53;8.53;;;13.70;99.90;;;;;;4977766;28;20489;-69
2023/10/01 06:21:25;;;;;;;10.80;8.10;;;13.70;99.90;;;;;;4977569;28;20416;-68
2023/10/01 06:23:53;;;;;;;16.00;8.70;;;13.80;99.90;;;;;;4977183;28;20394;-69
2023/10/01 06:26:19;;;;;;;12.10;8.43;;;13.80;99.90;;;;;;4978140;28;20915;-70
2023/10/01 06:28:46;;;;;;;14.00;9.60;;;13.80;99.90;;;;;;5016399;28;20434;-70
2023/10/01 06:31:12;;;;;;;12.37;9.00;;;13.90;99.90;;;;;;5016205;28;20500;-69
2023/10/01 06:33:38;;;;;;;12.40;8.60;;;13.90;99.90;;;;;;5016110;28;20911;-70
2023/10/01 06:36:19;;;;;;;13.63;8.97;;;13.90;99.90;;;;;;5015898;28;20619;-70
2023/10/01 06:38:47;;;;;;;11.63;8.70;;;13.90;99.90;;;;;;4977178;28;20426;-69
2023/10/01 06:41:18;;;;;;;10.03;7.97;;;13.90;99.90;;;;;;4976900;28;20493;-70
2023/10/01 06:43:48;;;;;;;10.00;7.70;;;14.00;99.90;;;;;;4977233;28;20729;-70
2023/10/01 06:46:15;;;;;;;9.50;7.67;;;14.00;99.90;;;;;;4977294;28;20494;-69
2023/10/01 06:48:42;;;;;;;10.03;7.80;;;14.10;99.90;;;;;;5013779;28;20457;-69
2023/10/01 06:51:08;;;;;;;14.00;9.20;;;14.10;99.90;;;;;;4998403;28;20449;-70
2023/10/01 06:53:47;;;;;;;9.90;7.43;;;14.20;99.90;;;;;;4995461;28;20411;-69
2023/10/01 06:56:17;;;;;;;11.60;8.30;;;14.40;99.90;;;;;;4995974;28;20418;-69
2023/10/01 06:59:12;;;;;;;11.13;8.07;;;14.40;99.90;;;;;;5015256;28;20436;-70
2023/10/01 07:01:42;;;;;;;10.33;7.37;;;14.50;99.90;;;;;;5015661;28;20987;-70
2023/10/01 07:04:11;;;;;;;11.93;8.50;;;14.60;99.90;;;;;;5015797;28;20389;-70
2023/10/01 07:06:38;;;;;;;9.77;8.50;;;14.70;99.90;;;;;;5012853;28;20418;-70
2023/10/01 07:09:06;;;;;;;9.20;7.47;;;14.70;99.90;;;;;;4995772;28;20487;-70
2023/10/01 07:11:33;;;;;;;10.90;8.53;;;14.80;99.90;;;;;;4995558;28;20939;-69
2023/10/01 07:14:01;;;;;;;12.40;8.47;;;15.00;99.90;;;;;;4995663;28;20779;-69
2023/10/01 07:16:36;;;;;;;11.33;8.20;;;15.10;99.90;;;;;;4995922;28;20500;-70
2023/10/01 07:19:05;;;;;;;10.70;9.00;;;15.20;99.90;;;;;;4996154;28;20441;-71
2023/10/01 07:21:34;;;;;;;9.97;7.80;;;15.30;99.90;;;;;;4996119;28;20417;-71
2023/10/01 07:24:01;;;;;;;12.80;8.20;;;15.40;99.90;;;;;;4994362;28;20470;-72
2023/10/01 07:26:28;;;;;;;10.00;8.20;;;15.40;99.90;;;;;;4996518;28;20418;-71
2023/10/01 07:28:59;;;;;;;12.77;9.17;;;15.60;99.90;;;;;;5014034;28;20452;-71
2023/10/01 07:31:25;;;;;;;11.07;9.83;;;15.60;99.90;;;;;;5016132;28;20525;-72
2023/10/01 07:33:55;;;;;;;16.80;11.50;;;15.40;99.90;;;;;;5015123;28;20392;-70
2023/10/01 07:36:23;;;;;;;12.10;9.10;;;15.10;99.90;;;;;;5013141;28;20729;-72
2023/10/01 07:38:52;;;;;;;15.27;10.20;;;15.00;99.90;;;;;;4975655;28;20447;-73
2023/10/01 07:41:23;;;;;;;12.40;10.53;;;14.90;99.90;;;;;;4975739;28;20403;-72
2023/10/01 07:43:49;;;;;;;17.73;10.87;;;14.80;99.90;;;;;;4976028;28;20392;-70
2023/10/01 07:46:18;;;;;;;15.17;10.57;;;15.00;99.90;;;;;;4975972;28;20416;-70
2023/10/01 07:48:47;;;;;;;12.53;10.43;;;15.10;99.90;;;;;;5013405;28;20526;-71
2023/10/01 07:51:30;;;;;;;12.03;10.13;;;15.10;99.90;;;;;;5014638;28;20439;-70
2023/10/01 07:54:02;;;;;;;12.33;9.90;;;15.20;99.90;;;;;;5014802;28;20399;-70
2023/10/01 07:56:28;;;;;;;12.77;9.90;;;15.60;99.90;;;;;;5014351;28;20501;-71
2023/10/01 07:59:16;;;;;;;15.03;11.80;;;15.80;99.90;;;;;;4995359;28;20553;-70
2023/10/01 08:01:42;;;;;;;12.77;10.23;;;15.90;99.90;;;;;;4994031;28;20562;-69
2023/10/01 08:07:15;;;;;;;13.60;10.13;;;16.00;99.90;;;;;;4999165;28;20413;-70
2023/10/01 08:09:51;;;;;;;16.50;10.50;;;15.90;99.90;;;;;;5014066;28;20464;-69
2023/10/01 08:17:47;;;;;;;12.10;9.60;;;15.90;99.90;;;;;;5003410;28;20401;-70
2023/10/01 08:20:31;;;;;;;12.23;9.63;;;16.10;99.90;;;;;;4994525;28;20801;-77
2023/10/01 08:23:23;;;;;;;10.90;9.23;;;16.40;99.90;;;;;;4994385;28;20414;-70
2023/10/01 08:25:51;;;;;;;12.57;9.40;;;16.20;99.90;;;;;;4994007;28;20787;-72
2023/10/01 08:30:46;;;;;;;13.30;8.93;;;16.20;99.90;;;;;;5013727;28;20474;-71
2023/10/01 08:33:22;;;;;;;15.33;9.73;;;16.30;99.90;;;;;;5013544;28;20403;-70
2023/10/01 08:36:01;;;;;;;11.60;9.37;;;16.40;99.90;;;;;;5013790;28;20171;-70
2023/10/01 08:38:34;;;;;;;13.63;9.77;;;16.50;99.90;;;;;;4997822;28;20520;-69
2023/10/01 08:41:03;;;;;;;13.40;9.80;;;16.80;99.90;;;;;;4994284;28;20447;-68
2023/10/01 08:43:35;;;;;;;12.30;9.33;;;16.90;99.90;;;;;;4993746;28;20419;-70
2023/10/01 08:46:17;;;;;;;11.10;9.50;;;16.90;99.90;;;;;;4993839;28;20421;-70
2023/10/01 08:48:43;;;;;;;12.53;8.10;;;17.00;99.90;;;;;;5011621;28;20805;-69
2023/10/01 08:51:13;;;;;;;14.27;9.40;;;17.10;99.90;;;;;;5013278;28;20536;-71
2023/10/01 08:53:41;;;;;;;12.30;9.20;;;17.20;99.90;;;;;;5013298;28;20777;-71
2023/10/01 08:56:13;;;;;;;10.50;8.23;;;17.50;99.90;;;;;;5013621;28;20564;-70
2023/10/01 08:58:49;;;;;;;9.63;8.23;;;17.70;99.90;;;;;;4998564;28;20941;-71
2023/10/01 09:01:19;;;;;;;13.67;9.07;;;17.90;99.90;;;;;;4993762;28;20876;-72
2023/10/01 09:03:49;;;;;;;15.20;9.47;;;18.10;99.90;;;;;;4993991;28;20394;-70
2023/10/01 09:06:24;;;;;;;12.07;8.90;;;18.00;99.90;;;;;;4993893;28;20443;-71
2023/10/01 09:08:55;;;;;;;10.60;8.50;;;18.00;99.90;;;;;;5012001;28;20462;-70
2023/10/01 09:11:35;;;;;;;13.73;9.60;;;18.30;99.90;;;;;;5013026;28;20446;-71
2023/10/01 09:14:17;;;;;;;12.00;8.90;;;18.30;99.90;;;;;;5013101;28;20399;-68
2023/10/01 09:17:07;;;;;;;12.47;9.10;;;18.30;99.90;;;;;;5011769;28;20387;-72
2023/10/01 09:19:44;;;;;;;11.07;8.60;;;18.40;99.90;;;;;;4992548;28;20735;-73
2023/10/01 09:22:22;;;;;;;10.20;8.10;;;18.40;99.90;;;;;;4993219;28;20392;-68
2023/10/01 09:25:01;;;;;;;14.10;8.53;;;18.50;99.90;;;;;;4993149;28;20402;-68
2023/10/01 09:27:30;;;;;;;9.97;8.07;;;18.70;99.90;;;;;;5000393;28;20809;-70
2023/10/01 09:30:27;;;;;;;10.63;7.80;;;18.70;99.90;;;;;;5013176;28;20455;-71
2023/10/01 09:33:14;;;;;;;17.73;8.50;;;18.90;99.90;;;;;;5012829;28;20495;-70
2023/10/01 09:35:59;;;;;;;13.10;9.20;;;19.10;99.90;;;;;;5012724;28;20395;-70
2023/10/01 09:38:28;;;;;;;10.33;8.23;;;19.20;99.90;;;;;;5010418;28;20489;-72
2023/10/01 09:40:56;;;;;;;11.40;8.30;;;19.40;99.90;;;;;;5012424;28;20399;-71
2023/10/01 09:43:27;;;;;;;11.10;7.80;;;19.50;99.90;;;;;;5012284;28;20395;-68
2023/10/01 09:45:53;;;;;;;10.30;8.57;;;19.70;99.90;;;;;;5012955;28;20457;-71
2023/10/01 09:48:29;;;;;;;12.37;8.93;;;19.80;99.90;;;;;;5003018;28;20522;-72
2023/10/01 09:51:03;;;;;;;11.57;8.20;;;20.00;99.90;;;;;;4993022;28;20431;-70
2023/10/01 09:53:32;;;;;;;12.00;8.50;;;20.00;99.90;;;;;;4993336;28;20391;-70
2023/10/01 09:56:00;;;;;;;9.40;7.50;;;20.10;99.90;;;;;;4993225;28;20400;-70
2023/10/01 09:58:25;;;;;;;13.50;9.23;;;20.30;99.90;;;;;;5007301;28;20431;-71
2023/10/01 10:01:01;;;;;;;11.77;8.53;;;20.30;99.90;;;;;;5012749;28;20958;-71
2023/10/01 10:03:38;;;;;;;12.57;8.40;;;20.10;99.90;;;;;;5012826;28;20222;-71
2023/10/01 10:06:08;;;;;;;15.40;8.20;;;20.40;99.90;;;;;;5012874;28;20497;-71
2023/10/01 10:08:35;;;;;;;11.20;7.80;;;20.40;99.90;;;;;;4996860;28;20569;-70
2023/10/01 10:11:07;;;;;;;10.60;8.53;;;20.50;99.90;;;;;;4992824;28;20440;-73
2023/10/01 10:13:46;;;;;;;12.90;9.57;;;20.70;99.90;;;;;;4993022;28;20383;-71
2023/10/01 10:16:33;;;;;;;12.50;8.20;;;20.90;99.90;;;;;;4992860;28;20396;-72
2023/10/01 10:19:20;;;;;;;10.70;7.80;;;20.90;99.90;;;;;;5010838;28;20975;-72
2023/10/01 10:22:25;;;;;;;10.87;8.17;;;20.80;99.90;;;;;;5011119;28;20913;-72
2023/10/01 10:24:48;;;;;;;10.97;8.20;;;20.90;99.90;;;;;;5012482;28;20481;-72
2023/10/01 10:27:33;;;;;;;12.60;9.30;;;21.00;99.90;;;;;;5008728;28;20431;-71
2023/10/01 10:30:05;;;;;;;10.63;8.27;;;21.10;99.90;;;;;;4990744;28;20431;-72
2023/10/01 10:32:41;;;;;;;11.63;8.40;;;21.40;99.90;;;;;;4992241;28;20986;-73
2023/10/01 10:35:14;;;;;;;11.30;8.17;;;21.40;99.90;;;;;;4992699;28;20479;-70
2023/10/01 10:37:44;;;;;;;10.33;8.40;;;21.70;99.90;;;;;;5000302;28;20399;-69
2023/10/01 10:43:08;;;;;;;11.27;8.20;;;21.90;99.90;;;;;;5012233;28;20580;-69
2023/10/01 10:45:42;;;;;;;12.27;8.20;;;22.00;99.90;;;;;;5011744;28;20411;-71
2023/10/01 10:48:21;;;;;;;10.80;8.13;;;22.00;99.90;;;;;;5000532;28;20458;-71
2023/10/01 10:50:48;;;;;;;15.77;9.13;;;22.10;99.90;;;;;;4995375;28;20465;-70
2023/10/01 10:53:24;;;;;;;11.50;8.00;;;22.00;99.90;;;;;;4996730;28;20454;-71
2023/10/01 10:55:52;;;;;;;11.33;8.17;;;22.20;99.90;;;;;;4995737;28;20753;-71
2023/10/01 10:58:19;;;;;;;12.80;8.10;;;22.30;99.90;;;;;;5008139;28;20501;-70
2023/10/01 11:00:46;;;;;;;11.83;7.83;;;22.70;99.90;;;;;;5015896;28;20549;-66
2023/10/01 11:03:12;;;;;;;12.80;7.90;;;23.40;99.90;;;;;;5015423;28;20413;-68
2023/10/01 11:05:59;;;;;;;16.10;8.40;;;24.70;99.90;;;;;;5013632;28;20771;-68
2023/10/01 11:08:26;;;;;;;11.40;8.23;;;26.50;98.00;;;;;;5012602;28;20322;-69
2023/10/01 11:11:10;;;;;;;10.40;7.40;;;28.10;94.20;;;;;;4993297;28;20443;-69
2023/10/01 11:13:45;;;;;;;12.77;9.30;;;28.80;92.40;;;;;;4995708;28;20392;-69
2023/10/01 11:16:16;;;;;;;12.13;8.80;;;28.40;91.50;;;;;;4999802;28;20413;-72
2023/10/01 11:18:47;;;;;;;11.70;8.53;;;28.30;90.90;;;;;;5015151;28;20426;-69
2023/10/01 11:21:31;;;;;;;12.10;7.77;;;29.30;90.40;;;;;;5015250;28;20486;-70
2023/10/01 11:24:00;;;;;;;11.83;7.63;;;30.40;85.40;;;;;;5015225;28;20395;-71
2023/10/01 11:26:27;;;;;;;10.07;7.63;;;32.10;79.60;;;;;;5007820;28;20408;-73
2023/10/01 11:29:01;;;;;;;9.37;7.43;;;31.70;78.30;;;;;;4995106;28;20950;-73
2023/10/01 11:31:30;;;;;;;12.37;8.60;;;31.00;77.40;;;;;;5004042;28;20504;-73
2023/10/01 11:34:04;;;;;;;12.20;8.03;;;30.70;76.70;;;;;;5015137;28;20482;-73
2023/10/01 11:36:38;;;;;;;9.70;7.50;;;31.30;76.90;;;;;;5007337;28;20940;-72
2023/10/01 11:39:04;;;;;;;12.13;8.07;;;30.70;77.20;;;;;;4995186;28;20841;-71
2023/10/01 11:41:41;;;;;;;10.40;8.00;;;31.90;73.70;;;;;;4995305;28;20914;-72
2023/10/01 11:44:09;;;;;;;10.63;6.97;;;31.20;75.00;;;;;;4995214;28;20392;-73
2023/10/01 11:46:38;;;;;;;10.73;8.47;;;32.10;72.00;;;;;;5003307;28;20419;-72
2023/10/01 11:49:10;;;;;;;11.00;8.10;;;31.60;72.40;;;;;;5014580;28;20884;-71
2023/10/01 11:52:01;;;;;;;11.33;8.83;;;31.00;72.70;;;;;;5014546;28;20454;-71
2023/10/01 11:54:52;;;;;;;11.47;8.60;;;30.60;73.80;;;;;;5014524;28;20411;-73
2023/10/01 11:57:22;;;;;;;9.53;7.57;;;29.00;77.00;;;;;;5000493;28;20408;-71
2023/10/01 11:59:58;;;;;;;11.17;7.97;;;29.40;76.60;;;;;;4994571;28;20491;-71
2023/10/01 12:02:26;;;;;;;11.23;8.20;;;30.50;76.20;;;;;;4993733;28;20895;-70
2023/10/01 12:04:58;;;;;;;10.03;7.60;;;30.90;73.00;;;;;;4994831;28;20488;-69
2023/10/01 12:07:32;;;;;;;9.93;7.30;;;31.50;71.10;;;;;;5009071;28;20403;-72
2023/10/01 12:09:59;;;;;;;11.00;8.30;;;32.70;67.70;;;;;;5014659;28;20454;-71
2023/10/01 12:12:27;;;;;;;12.70;8.23;;;32.20;67.80;;;;;;5014317;28;20458;-71
2023/10/01 12:14:56;;;;;;;9.60;7.90;;;31.10;70.10;;;;;;5014278;28;20774;-71
2023/10/01 12:17:23;;;;;;;13.57;7.93;;;31.30;70.60;;;;;;4999725;28;20502;-72
2023/10/01 12:19:57;;;;;;;9.87;7.70;;;31.80;67.70;;;;;;4994444;28;20427;-71
2023/10/01 12:22:26;;;;;;;9.20;6.73;;;33.00;65.80;;;;;;4994390;28;20392;-71
2023/10/01 12:24:59;;;;;;;11.30;8.10;;;34.80;62.50;;;;;;4994095;28;20411;-71
2023/10/01 12:27:41;;;;;;;9.63;7.50;;;34.30;61.20;;;;;;5008586;28;20449;-71
2023/10/01 12:30:27;;;;;;;10.23;8.40;;;34.30;60.80;;;;;;5013498;28;20419;-71
2023/10/01 12:33:02;;;;;;;11.40;8.70;;;34.60;58.90;;;;;;5013898;28;20398;-69
2023/10/01 12:35:28;;;;;;;10.80;8.00;;;34.20;59.30;;;;;;5013800;28;20414;-69
2023/10/01 12:38:23;;;;;;;11.10;8.90;;;33.40;60.90;;;;;;4995621;28;20453;-69
2023/10/01 12:40:52;;;;;;;11.50;7.93;;;32.50;61.00;;;;;;4993861;28;20968;-72
2023/10/01 12:43:36;;;;;;;11.60;8.83;;;32.80;60.70;;;;;;4994447;28;20801;-73
2023/10/01 12:46:08;;;;;;;11.83;8.33;;;33.00;61.70;;;;;;4996970;28;20407;-72
2023/10/01 12:48:35;;;;;;;11.53;8.67;;;33.30;60.60;;;;;;5013461;28;20949;-72
2023/10/01 12:51:03;;;;;;;11.40;8.53;;;34.30;59.30;;;;;;5013774;28;20478;-71
2023/10/01 12:53:34;;;;;;;9.20;8.30;;;34.60;57.10;;;;;;5013899;28;20419;-71
2023/10/01 12:56:02;;;;;;;10.40;8.10;;;34.50;56.80;;;;;;5007766;28;20950;-71
2023/10/01 12:58:39;;;;;;;11.30;7.97;;;33.90;57.30;;;;;;4993763;28;20435;-70
2023/10/01 13:01:31;;;;;;;10.87;7.70;;;34.30;56.90;;;;;;4993566;28;20396;-71
2023/10/01 13:04:16;;;;;;;12.53;8.83;;;34.60;55.80;;;;;;4993664;28;20401;-72
2023/10/01 13:06:43;;;;;;;9.57;7.40;;;34.90;55.60;;;;;;4994370;28;20416;-72
2023/10/01 13:09:34;;;;;;;10.60;7.80;;;35.00;54.90;;;;;;4993103;28;20847;-72
2023/10/01 13:11:59;;;;;;;12.83;8.97;;;35.90;54.70;;;;;;4993115;28;20526;-71
2023/10/01 13:14:29;;;;;;;9.20;7.67;;;36.50;53.10;;;;;;4993153;28;20556;-71
2023/10/01 13:17:00;;;;;;;10.30;8.50;;;36.00;51.80;;;;;;5002547;28;20508;-72
2023/10/01 13:19:35;;;;;;;11.53;7.77;;;36.60;51.20;;;;;;5012878;28;20438;-71
2023/10/01 13:22:04;;;;;;;10.30;8.37;;;36.00;51.30;;;;;;5012620;28;20801;-71
2023/10/01 13:24:31;;;;;;;9.63;7.23;;;34.50;52.20;;;;;;5012640;28;20889;-71
2023/10/01 13:27:10;;;;;;;10.83;8.20;;;34.60;51.90;;;;;;5003295;28;20470;-72
2023/10/01 13:29:39;;;;;;;9.17;7.60;;;35.10;52.90;;;;;;4993134;28;20498;-72
2023/10/01 13:32:26;;;;;;;9.67;8.10;;;36.30;50.00;;;;;;5001717;28;20443;-71
2023/10/01 13:34:58;;;;;;;11.27;8.00;;;36.40;48.50;;;;;;5012765;28;20455;-72
2023/10/01 13:37:42;;;;;;;10.57;8.57;;;36.70;48.20;;;;;;4999593;28;20404;-72
2023/10/01 13:40:29;;;;;;;9.67;8.20;;;37.20;47.60;;;;;;4993181;28;20436;-72
2023/10/01 14:08:43;;;;;;;11.43;8.80;;;34.30;50.90;;;;;;4992955;28;20387;-72